Time;durP1;ratioP1;P1;durP2;ratioP2;P2;SDS_P1;SDS_P2;PMS_P1;PMS_P2;Temp;Humidity;BMP_temperature;BMP_pressure;BME280_temperature;BME280_humidity;BME280_pressure;Samples;Min_cycle;Max_cycle;Signal;HPM_P1;HPM_P2
2022/11/15 00:01:22;;;;;;;19.00;12.55;;;;;;;12.23;68.71;101556.78;5090091;28;20110;-74
2022/11/15 00:03:51;;;;;;;18.83;11.60;;;;;;;12.22;68.68;101556.91;5090492;28;20024;-75
2022/11/15 00:06:16;;;;;;;20.75;13.02;;;;;;;12.24;68.98;101552.25;5090689;28;20024;-75
2022/11/15 00:08:41;;;;;;;18.73;12.13;;;;;;;12.17;68.82;101556.41;5090283;28;20508;-74
2022/11/15 00:11:09;;;;;;;18.67;12.35;;;;;;;12.12;68.93;101550.44;5089996;28;20028;-76
2022/11/15 00:13:35;;;;;;;17.67;11.98;;;;;;;11.93;68.65;101530.22;5089771;28;20126;-74
2022/11/15 00:16:01;;;;;;;22.98;12.73;;;;;;;12.10;69.29;101558.66;5092371;28;20022;-74
2022/11/15 00:18:27;;;;;;;15.65;10.95;;;;;;;12.04;69.45;101536.69;5089647;28;20467;-74
2022/11/15 00:20:53;;;;;;;31.75;11.38;;;;;;;11.99;69.42;101527.09;5095128;28;20024;-74
2022/11/15 00:23:18;;;;;;;17.25;11.85;;;;;;;12.12;69.43;101547.75;5102971;28;20535;-74
2022/11/15 00:25:44;;;;;;;14.73;10.38;;;;;;;11.97;69.32;101515.56;5089648;28;20020;-74
2022/11/15 00:28:09;;;;;;;20.42;11.05;;;;;;;12.20;68.88;101550.78;5097276;28;20068;-75
2022/11/15 00:30:35;;;;;;;15.25;9.82;;;;;;;12.23;68.59;101547.84;5096923;28;20580;-74
2022/11/15 00:33:04;;;;;;;14.15;10.02;;;;;;;12.24;68.51;101550.41;5089740;28;20099;-74
2022/11/15 00:35:32;;;;;;;14.23;9.80;;;;;;;12.17;68.89;101551.00;5100969;28;20059;-75
2022/11/15 00:37:57;;;;;;;13.52;8.68;;;;;;;12.17;68.81;101548.31;5089334;28;20028;-74
2022/11/15 00:40:23;;;;;;;12.38;8.40;;;;;;;12.23;68.99;101542.47;5088997;28;20028;-74
2022/11/15 00:42:48;;;;;;;13.25;9.13;;;;;;;12.11;68.63;101525.31;5089153;28;20027;-76
2022/11/15 00:45:13;;;;;;;14.60;9.32;;;;;;;11.92;69.04;101506.09;5089174;28;20036;-74
2022/11/15 00:47:46;;;;;;;12.35;9.20;;;;;;;11.89;69.01;101506.31;5088921;28;20035;-74
2022/11/15 00:50:11;;;;;;;12.88;8.95;;;;;;;11.92;69.11;101514.19;5098353;28;20647;-74
2022/11/15 00:52:37;;;;;;;11.55;7.47;;;;;;;12.04;69.59;101534.00;5101105;28;20460;-74
2022/11/15 00:55:03;;;;;;;12.20;8.63;;;;;;;11.99;69.44;101524.38;5089361;28;20027;-74
2022/11/15 00:57:28;;;;;;;11.43;8.48;;;;;;;12.07;69.39;101528.38;5073590;28;20058;-76
2022/11/15 00:59:53;;;;;;;12.68;7.88;;;;;;;12.02;69.69;101527.84;5107701;28;20802;-75
2022/11/15 01:02:19;;;;;;;11.00;7.80;;;;;;;12.04;69.24;101532.16;5105515;28;20028;-75
2022/11/15 01:04:44;;;;;;;13.93;9.10;;;;;;;12.00;69.35;101504.56;5092690;28;20035;-74
2022/11/15 01:07:10;;;;;;;12.32;8.30;;;;;;;12.07;69.39;101523.84;5102437;28;20402;-73
2022/11/15 01:09:35;;;;;;;12.25;8.32;;;;;;;11.99;68.96;101512.75;5089302;28;20032;-75
2022/11/15 01:12:01;;;;;;;12.68;8.55;;;;;;;12.00;69.70;101509.94;5089006;28;20024;-74
2022/11/15 01:14:26;;;;;;;21.98;8.57;;;;;;;11.94;69.04;101517.63;5088795;28;20486;-74
2022/11/15 01:16:52;;;;;;;10.57;7.95;;;;;;;11.89;69.60;101517.97;5088602;28;20020;-73
2022/11/15 01:19:18;;;;;;;12.23;8.82;;;;;;;11.88;69.41;101520.75;5088921;28;20063;-73
2022/11/15 01:21:43;;;;;;;12.15;7.63;;;;;;;11.88;70.02;101516.22;5089002;28;20020;-74
2022/11/15 01:24:12;;;;;;;9.30;7.38;;;;;;;11.73;69.95;101536.22;5088789;28;20573;-75
2022/11/15 01:26:38;;;;;;;14.02;9.65;;;;;;;11.75;70.21;101526.16;5088995;28;20089;-74
2022/11/15 01:29:04;;;;;;;11.98;8.38;;;;;;;11.69;70.78;101526.56;5088915;28;20036;-75
2022/11/15 01:31:29;;;;;;;11.50;8.02;;;;;;;11.69;71.01;101520.31;5075061;28;20032;-75
2022/11/15 01:33:54;;;;;;;14.52;8.98;;;;;;;11.67;72.03;101523.13;5108679;28;20118;-74
2022/11/15 01:36:21;;;;;;;13.32;8.82;;;;;;;11.70;71.87;101516.69;5102487;28;20040;-76
2022/11/15 01:38:56;;;;;;;13.38;8.85;;;;;;;11.75;71.78;101525.31;5088498;28;20085;-74
2022/11/15 01:41:25;;;;;;;15.02;9.20;;;;;;;11.69;72.27;101521.19;5091176;28;20059;-75
2022/11/15 01:43:55;;;;;;;12.43;8.43;;;;;;;11.61;72.49;101518.19;5092580;28;20027;-74
2022/11/15 01:46:37;;;;;;;14.90;8.60;;;;;;;11.57;72.03;101516.69;5092851;28;20118;-74
2022/11/15 01:49:16;;;;;;;16.33;9.68;;;;;;;11.54;72.41;101514.19;5092538;28;20024;-74
2022/11/15 01:51:42;;;;;;;15.50;7.82;;;;;;;11.55;72.43;101513.25;5063972;28;20700;-74
2022/11/15 01:54:13;;;;;;;12.93;8.75;;;;;;;11.56;72.70;101512.25;5112390;28;20028;-74
2022/11/15 01:56:47;;;;;;;11.60;7.18;;;;;;;11.59;73.19;101514.72;5113232;28;20114;-74
2022/11/15 01:59:13;;;;;;;13.02;7.22;;;;;;;11.62;72.64;101508.28;5112923;28;20031;-76
2022/11/15 02:01:40;;;;;;;8.60;6.43;;;;;;;11.62;72.57;101505.59;5105661;28;20123;-74
2022/11/15 02:04:17;;;;;;;11.75;7.72;;;;;;;11.66;72.62;101507.06;5092525;28;20063;-75
2022/11/15 02:06:44;;;;;;;13.63;7.90;;;;;;;11.52;72.29;101494.59;5092422;28;20028;-75
2022/11/15 02:09:10;;;;;;;15.88;9.70;;;;;;;11.61;72.55;101496.63;5092886;28;20506;-75
2022/11/15 02:11:37;;;;;;;10.00;7.05;;;;;;;11.59;72.08;101485.09;5103848;28;20051;-74
2022/11/15 02:14:05;;;;;;;9.40;6.82;;;;;;;11.45;72.61;101469.06;5113356;28;20028;-75
2022/11/15 02:16:31;;;;;;;12.63;7.82;;;;;;;11.63;72.41;101501.91;5093392;28;20036;-74
2022/11/15 02:19:02;;;;;;;11.57;7.53;;;;;;;11.58;72.44;101490.59;5071519;28;20052;-74
2022/11/15 02:21:55;;;;;;;12.17;8.07;;;;;;;11.56;72.84;101501.47;5071649;28;20028;-75
2022/11/15 02:24:39;;;;;;;25.77;8.55;;;;;;;11.53;72.18;101504.38;5080172;28;20436;-74
2022/11/15 02:27:13;;;;;;;15.95;8.25;;;;;;;11.44;72.65;101500.53;5092049;28;20046;-74
2022/11/15 02:29:53;;;;;;;11.55;7.40;;;;;;;11.19;72.85;101473.59;5091686;28;20032;-75
2022/11/15 02:32:27;;;;;;;13.75;8.50;;;;;;;11.42;73.06;101498.91;5092202;28;20032;-74
2022/11/15 02:35:04;;;;;;;13.77;7.45;;;;;;;11.42;72.98;101490.84;5100472;28;20082;-74
2022/11/15 02:37:42;;;;;;;9.70;6.88;;;;;;;11.45;73.07;101490.63;5111102;28;20134;-74
2022/11/15 02:40:18;;;;;;;9.15;6.57;;;;;;;11.43;72.81;101492.56;5110773;28;20027;-74
2022/11/15 02:45:47;;;;;;;8.90;6.20;;;;;;;11.44;72.76;101488.88;5099036;28;20513;-75
2022/11/15 02:48:15;;;;;;;8.35;6.47;;;;;;;11.29;72.98;101498.03;5090047;28;20596;-75
2022/11/15 02:50:40;;;;;;;9.00;7.18;;;;;;;11.26;72.50;101490.19;5089888;28;20024;-74
2022/11/15 02:53:08;;;;;;;8.55;6.65;;;;;;;11.17;72.63;101485.44;5090098;28;20032;-74
2022/11/15 02:55:49;;;;;;;10.73;7.20;;;;;;;11.11;73.81;101475.09;5097928;28;20518;-74
2022/11/15 02:58:27;;;;;;;10.80;7.78;;;;;;;11.15;73.73;101484.69;5092503;28;20021;-76
2022/11/15 03:01:27;;;;;;;9.75;6.63;;;;;;;11.01;73.88;101474.88;5105047;28;20554;-74
2022/11/15 03:04:11;;;;;;;12.07;6.82;;;;;;;10.95;74.19;101469.09;5103940;28;20145;-75
2022/11/15 03:06:47;;;;;;;10.68;7.80;;;;;;;10.92;74.12;101465.63;5090282;28;20028;-74
2022/11/15 03:09:26;;;;;;;13.88;6.90;;;;;;;10.95;74.20;101475.31;5089956;28;20051;-75
2022/11/15 03:11:59;;;;;;;11.55;7.72;;;;;;;10.85;74.76;101452.72;5090437;28;20032;-74
2022/11/15 03:14:30;;;;;;;8.38;7.00;;;;;;;11.03;74.34;101469.41;5089923;28;20032;-74
2022/11/15 03:17:02;;;;;;;10.75;6.88;;;;;;;11.09;74.89;101463.59;5091015;28;20068;-74
2022/11/15 03:19:40;;;;;;;10.13;7.23;;;;;;;11.19;74.46;101470.06;5091184;28;20037;-75
2022/11/15 03:22:10;;;;;;;9.32;6.75;;;;;;;11.26;74.13;101465.94;5104849;28;20055;-73
2022/11/15 03:24:37;;;;;;;8.20;5.95;;;;;;;11.32;73.82;101461.00;5105371;28;20081;-74
2022/11/15 03:27:06;;;;;;;12.55;8.48;;;;;;;11.42;73.49;101466.59;5053726;28;20025;-74
2022/11/15 03:29:46;;;;;;;13.52;7.97;;;;;;;11.48;73.16;101466.16;5089316;28;20491;-74
2022/11/15 03:32:21;;;;;;;10.60;7.03;;;;;;;11.54;73.05;101452.25;5101410;28;20106;-75
2022/11/15 03:34:57;;;;;;;12.63;7.78;;;;;;;11.52;72.89;101426.38;5066933;28;1144983;-74
2022/11/15 03:37:29;;;;;;;8.68;6.55;;;;;;;11.49;72.36;101414.00;5110799;28;20039;-74
2022/11/15 03:39:54;;;;;;;9.18;7.03;;;;;;;11.75;72.62;101456.09;5110220;28;20027;-75
2022/11/15 03:42:32;;;;;;;9.90;7.50;;;;;;;11.75;71.81;101455.22;5096731;28;20395;-74
2022/11/15 03:45:15;;;;;;;13.50;9.43;;;;;;;11.65;71.76;101428.06;5090302;28;20111;-74
2022/11/15 03:47:59;;;;;;;10.27;7.38;;;;;;;11.75;71.53;101439.94;5098303;28;20032;-73
2022/11/15 03:50:25;;;;;;;9.88;7.32;;;;;;;11.61;71.83;101420.31;5094017;28;20032;-74
2022/11/15 03:52:53;;;;;;;10.35;7.68;;;;;;;11.70;71.62;101427.75;5106934;28;20036;-73
2022/11/15 03:55:21;;;;;;;12.70;7.75;;;;;;;11.80;71.83;101437.75;5109757;28;20538;-74
2022/11/15 03:57:50;;;;;;;28.60;8.18;;;;;;;11.84;71.95;101422.22;5099179;28;20032;-74
2022/11/15 04:00:15;;;;;;;19.25;7.63;;;;;;;11.81;71.45;101422.44;5090224;28;20068;-76
2022/11/15 04:02:41;;;;;;;9.48;7.30;;;;;;;11.76;71.43;101420.09;5063344;28;20079;-73
2022/11/15 04:05:07;;;;;;;10.05;7.68;;;;;;;11.79;71.54;101424.41;5069846;28;20027;-75
2022/11/15 04:07:32;;;;;;;12.02;8.15;;;;;;;11.79;71.29;101425.25;5070174;28;20428;-75
2022/11/15 04:10:03;;;;;;;14.23;8.73;;;;;;;11.80;71.52;101432.34;5099418;28;20053;-78
2022/11/15 04:12:30;;;;;;;13.85;8.10;;;;;;;11.76;71.30;101432.72;5108672;28;20038;-75
2022/11/15 04:15:07;;;;;;;10.98;7.60;;;;;;;11.70;71.70;101431.34;5110622;28;20027;-77
2022/11/15 04:17:46;;;;;;;9.85;7.18;;;;;;;11.75;71.49;101428.28;5108432;28;20024;-75
2022/11/15 04:26:01;;;;;;;14.10;8.80;;;;;;;11.78;71.68;101433.44;5112320;28;20042;-77
2022/11/15 04:28:27;;;;;;;9.07;7.13;;;;;;;11.76;71.86;101430.88;5114906;28;20024;-75
2022/11/15 04:30:53;;;;;;;11.77;8.93;;;;;;;11.80;71.42;101429.66;5116217;28;20291;-76
2022/11/15 04:33:18;;;;;;;15.98;8.35;;;;;;;11.83;71.85;101429.44;5100685;28;20042;-77
2022/11/15 04:37:11;;;;;;;12.82;8.55;;;;;;;11.71;71.58;101411.47;5078733;28;20051;-73
2022/11/15 04:38:29;;;;;;;10.18;8.10;;;;;;;11.81;71.48;101412.53;5089207;28;20514;-76
2022/11/15 04:40:54;;;;;;;13.90;9.60;;;;;;;11.75;71.77;101410.28;5105168;28;20042;-76
2022/11/15 04:43:20;;;;;;;13.27;8.43;;;;;;;11.79;71.35;101409.09;5109591;28;20038;-75
2022/11/15 04:45:45;;;;;;;12.85;9.88;;;;;;;11.77;71.63;101415.56;5107783;28;20027;-72
2022/11/15 04:48:10;;;;;;;16.85;9.40;;;;;;;11.46;71.99;101369.31;5109460;28;20105;-73
2022/11/15 04:50:36;;;;;;;13.98;9.52;;;;;;;11.78;71.57;101423.53;5073116;28;20046;-75
2022/11/15 04:53:01;;;;;;;14.02;7.78;;;;;;;11.79;71.84;101419.88;5109273;28;20415;-75
2022/11/15 04:55:27;;;;;;;23.02;9.15;;;;;;;11.81;71.90;101425.13;5090932;28;20031;-74
2022/11/15 04:57:59;;;;;;;12.57;7.53;;;;;;;11.83;71.47;101421.34;5072863;28;20039;-75
2022/11/15 05:00:26;;;;;;;17.92;7.75;;;;;;;11.81;71.57;101426.00;5109383;28;20582;-74
2022/11/15 05:05:36;;;;;;;25.92;8.00;;;;;;;11.57;71.85;101387.34;5109175;28;20034;-73
2022/11/15 05:08:02;;;;;;;18.13;9.55;;;;;;;11.64;71.48;101390.47;5108744;28;20139;-73
2022/11/15 05:10:27;;;;;;;11.93;7.80;;;;;;;11.61;71.16;101383.47;5108895;28;20053;-74
2022/11/15 05:12:52;;;;;;;31.30;8.68;;;;;;;11.87;71.34;101417.47;5108962;28;20048;-73
2022/11/15 05:15:18;;;;;;;22.42;9.18;;;;;;;11.86;71.24;101415.72;5108775;28;20046;-75
2022/11/15 05:17:43;;;;;;;9.77;8.02;;;;;;;11.67;71.39;101387.53;5108981;28;20548;-74
2022/11/15 05:20:09;;;;;;;9.73;7.35;;;;;;;11.89;71.00;101420.91;5109093;28;20023;-73
2022/11/15 05:22:35;;;;;;;26.95;9.55;;;;;;;11.64;71.12;101379.69;5072542;28;20040;-74
2022/11/15 05:25:00;;;;;;;70.43;10.73;;;;;;;11.83;70.93;101425.91;5109137;28;20083;-74
2022/11/15 05:27:26;;;;;;;11.77;7.60;;;;;;;11.88;71.21;101426.41;5109604;28;20072;-75
2022/11/15 05:29:51;;;;;;;29.08;12.77;;;;;;;11.77;70.78;101408.31;5108872;28;20020;-74
2022/11/15 05:32:17;;;;;;;13.07;8.13;;;;;;;11.87;70.72;101428.25;5109075;28;20500;-74
2022/11/15 05:34:43;;;;;;;14.30;8.15;;;;;;;11.78;70.68;101426.22;5110056;28;20032;-75
2022/11/15 05:37:09;;;;;;;13.15;8.15;;;;;;;11.73;71.48;101428.41;5111948;28;20035;-74
2022/11/15 05:39:35;;;;;;;19.00;9.85;;;;;;;11.77;71.16;101427.19;5113288;28;20023;-74
2022/11/15 05:42:14;;;;;;;14.18;8.77;;;;;;;11.79;71.07;101432.47;5109057;28;20020;-74
2022/11/15 05:44:44;;;;;;;28.77;11.65;;;;;;;11.83;70.99;101431.28;5108801;28;20031;-75
2022/11/15 05:47:14;;;;;;;16.15;9.13;;;;;;;11.83;70.76;101432.13;5108621;28;20028;-74
2022/11/15 05:49:43;;;;;;;14.10;8.18;;;;;;;11.82;70.76;101429.56;5108781;28;20043;-74
2022/11/15 05:52:11;;;;;;;14.48;8.55;;;;;;;11.82;70.97;101424.16;5108987;28;20058;-73
2022/11/15 05:54:37;;;;;;;14.15;8.30;;;;;;;11.90;70.92;101428.00;5108530;28;20065;-74
2022/11/15 05:57:04;;;;;;;65.75;21.75;;;;;;;11.88;70.21;101413.78;5108771;28;20474;-74
2022/11/15 05:59:31;;;;;;;40.10;9.60;;;;;;;11.75;70.95;101395.94;5108768;28;20032;-75
2022/11/15 06:01:56;;;;;;;26.05;10.55;;;;;;;11.92;70.75;101427.91;5108248;28;20106;-73
2022/11/15 06:04:22;;;;;;;24.65;10.15;;;;;;;11.96;70.82;101432.09;5108054;28;20034;-75
2022/11/15 06:06:48;;;;;;;30.30;10.48;;;;;;;11.99;70.84;101426.47;5108402;28;20155;-73
2022/11/15 06:09:13;;;;;;;24.95;9.98;;;;;;;11.95;70.64;101419.59;5108490;28;20503;-74
2022/11/15 06:11:38;;;;;;;22.50;10.27;;;;;;;12.06;70.39;101432.25;5108362;28;20447;-75
2022/11/15 06:14:04;;;;;;;19.20;11.02;;;;;;;12.15;70.43;101426.19;5108257;28;20082;-74
2022/11/15 06:16:29;;;;;;;19.60;11.18;;;;;;;12.00;70.04;101402.09;5108083;28;20433;-75
2022/11/15 06:18:55;;;;;;;14.95;8.93;;;;;;;12.22;69.76;101428.31;5107970;28;20037;-76
2022/11/15 06:21:20;;;;;;;18.63;10.70;;;;;;;12.16;69.72;101401.81;5108489;28;20027;-75
2022/11/15 06:23:46;;;;;;;20.45;10.90;;;;;;;12.37;69.80;101423.59;5107654;28;20027;-76
2022/11/15 06:26:11;;;;;;;20.15;10.15;;;;;;;12.20;69.18;101399.75;5109096;28;20030;-76
2022/11/15 06:28:37;;;;;;;24.38;9.82;;;;;;;12.45;69.23;101423.84;5068432;28;20123;-75
2022/11/15 06:31:08;;;;;;;11.63;8.35;;;;;;;12.46;69.01;101420.19;5068556;28;20044;-76
2022/11/15 06:33:33;;;;;;;14.60;9.23;;;;;;;12.41;69.06;101417.00;5068565;28;20044;-75
2022/11/15 06:36:03;;;;;;;20.88;9.30;;;;;;;12.49;69.08;101426.22;5069193;28;20048;-75
2022/11/15 06:38:29;;;;;;;16.25;9.35;;;;;;;12.52;68.92;101427.81;5068717;28;20116;-73
2022/11/15 06:40:54;;;;;;;23.17;11.70;;;;;;;12.43;69.25;101415.03;5035407;28;20123;-74
2022/11/15 06:43:20;;;;;;;19.17;11.00;;;;;;;12.35;69.25;101433.63;5070165;28;20056;-74
2022/11/15 06:45:46;;;;;;;26.38;12.77;;;;;;;12.48;69.53;101426.31;5072794;28;20814;-75
2022/11/15 06:48:11;;;;;;;20.08;10.10;;;;;;;12.47;69.29;101405.72;5072327;28;20045;-75
2022/11/15 06:50:36;;;;;;;22.25;8.20;;;;;;;12.58;69.29;101403.03;5068575;28;20065;-74
2022/11/15 06:53:03;;;;;;;26.42;10.88;;;;;;;12.67;69.25;101412.25;5068102;28;20392;-74
2022/11/15 06:55:29;;;;;;;26.25;9.27;;;;;;;12.78;69.22;101415.84;5068047;28;20036;-73
2022/11/15 06:57:55;;;;;;;16.98;9.52;;;;;;;12.69;68.65;101392.25;5068171;28;20032;-75
2022/11/15 07:00:22;;;;;;;52.80;13.98;;;;;;;12.73;68.58;101382.97;5102263;28;20039;-75
2022/11/15 07:02:48;;;;;;;23.10;10.10;;;;;;;12.97;68.36;101417.97;5111191;28;20024;-75
2022/11/15 07:05:14;;;;;;;22.20;11.32;;;;;;;13.07;68.41;101432.47;5111341;28;20405;-74
2022/11/15 07:07:40;;;;;;;19.63;12.43;;;;;;;13.06;68.23;101428.91;5111103;28;20019;-73
2022/11/15 07:10:06;;;;;;;16.73;11.45;;;;;;;13.19;67.76;101419.84;5110895;28;20407;-75
2022/11/15 07:12:32;;;;;;;57.50;12.88;;;;;;;13.13;67.35;101418.50;5110588;28;20024;-75
2022/11/15 07:14:57;;;;;;;100.53;16.67;;;;;;;12.97;66.98;101391.81;5110753;28;20445;-75
2022/11/15 07:17:23;;;;;;;83.65;12.27;;;;;;;12.86;66.95;101370.22;5110441;28;20106;-74
2022/11/15 07:19:48;;;;;;;30.48;10.27;;;;;;;13.10;67.10;101416.06;5092582;28;20035;-73
2022/11/15 07:22:14;;;;;;;65.32;10.02;;;;;;;13.14;67.15;101416.66;5110777;28;20034;-74
2022/11/15 07:24:39;;;;;;;28.13;9.95;;;;;;;13.13;67.37;101412.25;5110715;28;20042;-74
2022/11/15 07:27:04;;;;;;;17.33;9.18;;;;;;;13.17;67.43;101408.31;5110787;28;20034;-72
2022/11/15 07:29:30;;;;;;;15.35;8.93;;;;;;;13.18;67.61;101407.34;5110629;28;20030;-74
2022/11/15 07:31:55;;;;;;;14.57;8.55;;;;;;;13.14;67.60;101411.28;5110582;28;20455;-75
2022/11/15 07:34:21;;;;;;;10.88;7.22;;;;;;;13.00;67.65;101407.78;5110528;28;20150;-75
2022/11/15 07:36:46;;;;;;;13.65;9.45;;;;;;;12.88;67.92;101411.44;5110759;28;20055;-75
2022/11/15 07:39:12;;;;;;;27.63;16.88;;;;;;;12.84;68.74;101409.13;5109477;28;20024;-75
2022/11/15 07:41:38;;;;;;;20.92;10.30;;;;;;;12.84;69.09;101409.97;5110105;28;20324;-76
2022/11/15 07:44:04;;;;;;;23.15;12.68;;;;;;;12.83;69.30;101418.19;5110852;28;20020;-75
2022/11/15 07:46:30;;;;;;;24.98;8.88;;;;;;;12.82;69.51;101411.06;5110692;28;20036;-74
2022/11/15 07:48:56;;;;;;;12.40;8.93;;;;;;;12.90;69.41;101412.19;5110988;28;20023;-75
2022/11/15 07:51:21;;;;;;;29.55;9.45;;;;;;;12.72;69.45;101373.13;5074720;28;20104;-74
2022/11/15 07:53:46;;;;;;;22.25;9.45;;;;;;;12.97;69.66;101404.47;5115711;28;20525;-74
2022/11/15 07:56:12;;;;;;;40.08;10.00;;;;;;;13.01;69.66;101395.16;5114591;28;20104;-74
2022/11/15 07:58:38;;;;;;;19.85;11.35;;;;;;;13.18;69.35;101407.34;5111606;28;20020;-73
2022/11/15 08:01:08;;;;;;;44.83;10.75;;;;;;;13.26;68.79;101399.47;5109929;28;20027;-73
2022/11/15 08:03:34;;;;;;;37.67;10.57;;;;;;;13.29;68.27;101404.66;5110217;28;20019;-73
2022/11/15 08:06:00;;;;;;;27.95;8.50;;;;;;;13.21;67.78;101385.50;5109923;28;20028;-74
2022/11/15 08:08:25;;;;;;;20.35;9.60;;;;;;;13.25;67.65;101386.94;5109903;28;20072;-75
2022/11/15 08:10:52;;;;;;;27.52;8.02;;;;;;;13.35;67.44;101410.41;5109785;28;20110;-76
2022/11/15 08:13:17;;;;;;;35.25;10.38;;;;;;;13.28;67.35;101386.69;5109745;28;20509;-75
2022/11/15 08:15:43;;;;;;;16.38;8.38;;;;;;;13.32;67.46;101394.44;5109889;28;20118;-73
2022/11/15 08:18:12;;;;;;;14.32;8.80;;;;;;;13.43;67.50;101407.06;5110117;28;20022;-73
2022/11/15 08:20:37;;;;;;;19.55;11.30;;;;;;;13.50;67.43;101413.72;5110239;28;20043;-75
2022/11/15 08:23:05;;;;;;;20.00;10.55;;;;;;;13.43;67.89;101401.66;5109549;28;20058;-72
2022/11/15 08:25:32;;;;;;;17.00;10.07;;;;;;;13.50;67.49;101409.19;5109882;28;20024;-75
2022/11/15 08:27:59;;;;;;;13.18;8.48;;;;;;;13.43;67.63;101390.88;5109342;28;20055;-76
2022/11/15 08:30:26;;;;;;;18.77;10.20;;;;;;;13.52;67.42;101406.34;5109888;28;20034;-74
2022/11/15 08:32:52;;;;;;;24.00;12.07;;;;;;;13.59;67.67;101391.34;5109615;28;20032;-74
2022/11/15 08:35:18;;;;;;;22.25;9.65;;;;;;;13.49;67.47;101368.75;5109279;28;20502;-75
2022/11/15 08:37:44;;;;;;;21.67;10.82;;;;;;;13.64;67.26;101395.38;5109515;28;20023;-74
2022/11/15 08:40:10;;;;;;;46.72;12.35;;;;;;;13.64;67.53;101389.09;5109146;28;20531;-74
2022/11/15 08:42:36;;;;;;;35.72;11.80;;;;;;;13.68;67.54;101385.19;5109050;28;20486;-75
2022/11/15 08:45:03;;;;;;;60.97;12.27;;;;;;;13.78;67.72;101386.16;5108929;28;20090;-74
2022/11/15 08:47:28;;;;;;;19.02;11.05;;;;;;;13.85;67.13;101387.34;5109215;28;20028;-75
2022/11/15 08:49:54;;;;;;;29.02;11.32;;;;;;;13.82;67.02;101375.94;5108731;28;20454;-74
2022/11/15 08:52:19;;;;;;;26.67;11.93;;;;;;;13.75;66.73;101348.56;5109687;28;20532;-73
2022/11/15 08:54:45;;;;;;;32.65;12.68;;;;;;;13.77;66.69;101341.16;5108955;28;20536;-74
2022/11/15 08:57:10;;;;;;;489.48;55.53;;;;;;;13.57;66.83;101298.72;5108973;28;20028;-73
2022/11/15 08:59:36;;;;;;;372.80;37.58;;;;;;;13.92;67.10;101366.91;5109268;28;20028;-74
2022/11/15 09:02:03;;;;;;;173.10;22.95;;;;;;;14.01;66.59;101359.88;5113763;28;20094;-73
2022/11/15 09:04:29;;;;;;;32.97;11.00;;;;;;;14.00;66.36;101361.75;5114102;28;20035;-73
2022/11/15 09:06:54;;;;;;;30.17;11.38;;;;;;;14.06;66.59;101355.81;5111085;28;20023;-75
2022/11/15 09:09:20;;;;;;;66.18;22.50;;;;;;;13.95;66.50;101345.03;5109094;28;20059;-74
2022/11/15 09:11:45;;;;;;;40.83;15.30;;;;;;;13.91;66.55;101357.06;5072401;28;20394;-75
2022/11/15 09:14:12;;;;;;;23.17;11.90;;;;;;;13.89;66.87;101353.66;5108763;28;20038;-75
2022/11/15 09:16:37;;;;;;;25.95;13.93;;;;;;;13.82;67.08;101333.50;5109486;28;20030;-74
2022/11/15 09:19:03;;;;;;;37.17;10.70;;;;;;;13.91;66.68;101343.56;5090867;28;20064;-74
2022/11/15 09:21:29;;;;;;;16.58;9.88;;;;;;;13.88;66.44;101338.41;5109649;28;20024;-76
2022/11/15 09:23:54;;;;;;;21.67;10.55;;;;;;;13.72;66.56;101321.78;5108981;28;20020;-73
2022/11/15 09:26:20;;;;;;;13.77;9.18;;;;;;;13.85;66.61;101337.84;5109418;28;20038;-75
2022/11/15 09:28:45;;;;;;;15.40;9.13;;;;;;;13.75;66.70;101324.22;5109841;28;20155;-76
2022/11/15 09:31:11;;;;;;;14.32;8.15;;;;;;;13.75;66.70;101326.06;5109311;28;20023;-74
2022/11/15 09:33:37;;;;;;;13.55;8.23;;;;;;;13.60;66.91;101298.47;5109268;28;20032;-75
2022/11/15 09:36:07;;;;;;;19.20;8.32;;;;;;;13.76;66.71;101325.09;5109376;28;20055;-74
2022/11/15 09:38:34;;;;;;;19.42;9.18;;;;;;;13.83;66.59;101326.25;5109499;28;20104;-74
2022/11/15 09:41:29;;;;;;;15.55;9.85;;;;;;;13.83;66.75;101328.97;5109075;28;20416;-75
2022/11/15 09:44:00;;;;;;;13.30;7.93;;;;;;;13.72;66.84;101288.47;5006031;28;20044;-75
2022/11/15 09:46:44;;;;;;;19.42;10.20;;;;;;;13.85;67.19;101317.03;5006425;28;20071;-74
2022/11/15 09:49:13;;;;;;;13.90;8.52;;;;;;;13.89;66.52;101314.94;5006483;28;20087;-73
2022/11/15 09:51:49;;;;;;;12.00;7.95;;;;;;;13.74;66.70;101281.06;5006376;28;20477;-74
2022/11/15 09:54:34;;;;;;;13.98;8.05;;;;;;;14.05;66.65;101318.94;4989742;28;20082;-75
2022/11/15 09:57:10;;;;;;;14.98;7.88;;;;;;;14.09;66.26;101314.97;5006307;28;20149;-74
2022/11/15 09:59:38;;;;;;;12.38;8.07;;;;;;;14.14;66.18;101311.88;5005831;28;20170;-75
2022/11/15 10:02:10;;;;;;;11.98;6.97;;;;;;;14.19;65.92;101299.66;5008462;28;20048;-75
2022/11/15 10:04:37;;;;;;;11.73;7.15;;;;;;;14.22;66.04;101303.13;5010082;28;20077;-73
2022/11/15 10:07:03;;;;;;;14.25;6.75;;;;;;;14.33;65.87;101306.63;5009816;28;20045;-75
2022/11/15 10:09:57;;;;;;;14.05;7.78;;;;;;;14.39;65.89;101292.56;5011342;28;20173;-73
2022/11/15 10:12:25;;;;;;;15.63;8.70;;;;;;;14.54;65.44;101296.66;4934678;29;20075;-73
2022/11/15 10:15:05;;;;;;;41.60;15.50;;;;;;;14.69;66.15;101297.16;4934570;29;20036;-74
2022/11/15 10:17:40;;;;;;;10.63;7.40;;;;;;;14.81;65.25;101293.34;4931672;29;20040;-75
2022/11/15 10:20:20;;;;;;;14.52;8.60;;;;;;;14.86;64.76;101288.38;4948990;28;20436;-74
2022/11/15 10:22:47;;;;;;;22.33;8.00;;;;;;;14.95;64.31;101287.56;5028695;28;20057;-75
2022/11/15 10:25:24;;;;;;;57.22;37.50;;;;;;;14.96;64.30;101264.91;5028913;28;20179;-74
2022/11/15 10:28:17;;;;;;;15.82;8.95;;;;;;;15.14;64.21;101267.81;5012142;28;20196;-74
2022/11/15 10:30:49;;;;;;;18.95;8.43;;;;;;;15.25;63.91;101255.03;5028572;28;20041;-75
2022/11/15 10:33:23;;;;;;;10.32;6.75;;;;;;;15.43;63.35;101260.63;5028501;28;20061;-74
2022/11/15 10:35:48;;;;;;;14.95;6.97;;;;;;;15.35;62.41;101232.50;5028212;28;20127;-76
2022/11/15 10:38:14;;;;;;;15.98;7.93;;;;;;;15.41;62.09;101240.06;5028628;28;20062;-73
2022/11/15 10:40:41;;;;;;;21.80;8.27;;;;;;;15.45;62.13;101252.31;5028652;28;20099;-75
2022/11/15 10:43:09;;;;;;;16.48;8.55;;;;;;;15.50;62.33;101241.97;5028431;28;20582;-75
2022/11/15 10:45:35;;;;;;;12.88;8.32;;;;;;;15.62;62.40;101238.13;5028537;28;20040;-75
2022/11/15 10:48:12;;;;;;;14.73;8.90;;;;;;;15.49;61.86;101210.41;5011849;28;20125;-76
2022/11/15 10:50:40;;;;;;;23.75;9.65;;;;;;;15.75;62.32;101233.25;5108762;28;20035;-74
2022/11/15 10:53:37;;;;;;;19.13;9.73;;;;;;;15.90;62.16;101228.25;5111608;28;20035;-74
2022/11/15 10:56:08;;;;;;;22.10;8.60;;;;;;;15.97;61.28;101232.94;5008487;28;20108;-74
2022/11/15 10:58:42;;;;;;;28.00;12.45;;;;;;;15.94;60.95;101226.94;5008783;28;20579;-75
2022/11/15 11:01:10;;;;;;;474.63;306.45;;;;;;;15.95;61.67;101226.81;5008569;28;20042;-74
2022/11/15 11:03:38;;;;;;;82.13;43.47;;;;;;;15.68;61.80;101211.28;5008189;28;20037;-73
2022/11/15 11:06:10;;;;;;;102.03;44.00;;;;;;;15.95;61.66;101213.25;5008211;28;20061;-76
2022/11/15 11:08:36;;;;;;;24.52;10.75;;;;;;;16.00;61.50;101212.81;5008144;28;20053;-75
2022/11/15 11:11:03;;;;;;;48.65;21.58;;;;;;;16.01;61.12;101204.53;5008724;28;20048;-75
2022/11/15 11:13:39;;;;;;;18.27;8.10;;;;;;;15.74;61.38;101174.59;5007936;28;20034;-74
2022/11/15 11:16:13;;;;;;;27.98;10.65;;;;;;;16.09;61.37;101196.50;5008364;28;20442;-74
2022/11/15 11:18:43;;;;;;;18.55;9.45;;;;;;;16.39;60.95;101191.88;5010642;28;20045;-75
2022/11/15 11:21:16;;;;;;;34.58;11.65;;;;;;;16.62;59.93;101188.66;4996028;28;20394;-75
2022/11/15 11:24:07;;;;;;;21.40;8.82;;;;;;;16.31;59.35;101160.03;5011337;28;20133;-74
2022/11/15 11:26:32;;;;;;;21.88;8.55;;;;;;;16.47;59.13;101186.53;5007090;28;20417;-75
2022/11/15 11:29:03;;;;;;;42.50;16.27;;;;;;;16.63;59.38;101179.50;5007660;28;20033;-74
2022/11/15 11:31:34;;;;;;;32.72;9.93;;;;;;;16.75;60.80;101175.59;5007423;28;20120;-74
2022/11/15 11:34:29;;;;;;;30.25;16.27;;;;;;;16.87;59.53;101168.06;5110721;28;20078;-74